New Haven, Iowa
Current Conditions -  °F | °C
As of 12:15 AM on Monday 22 Dec 2014 (Local Time) from KCCY Reporting Station
Light Rain Light Rain  
Wind Chill: 28°   Ceiling: 500
Heat Index: 37°   Visibility: 2.5mi
Dew Point: 37°   Wind: 16mph
Humidity: 100%   Direction: 150°SSE
Pressure: 29.78"   Gusts: NA
Location:  43.2938°N, 92.8135°W
Report Text: KCCY 220615Z AUTO 15014KT 2 1/2SM -RA OVC005 03/03 A2978 RMK AO2
Loading
Personal Weather Stations






























Interactive Weather Map New forecast layout! Learn more

10-Day Weather Forecast

Advertisements
Track Severe Weather on mobile